This is the latest recevied weather packets stored in our database for station/object NN5DX-12. If no packets are shown the sender has not sent any weather packets the latest 10 day(s).
| Time | Temp. | Humidity | Pressure | Rain* | Wind** | Luminosity | Snow |
|---|---|---|---|---|---|---|---|
| 1778158817 | 1.11° C | 79% | 1024.9 hPa | 0 mm | - | - | - |
| 1778158517 | 1.11° C | 79% | 1024.8 hPa | 0 mm | - | - | - |
| 1778158217 | 1.11° C | 81% | 1024.7 hPa | 0 mm | - | - | - |
| 1778157917 | 0.56° C | 80% | 1024.8 hPa | 0 mm | - | - | - |
| 1778157617 | -0.56° C | 86% | 1024.3 hPa | 0 mm | - | - | - |
| 1778157317 | -2.22° C | 93% | 1023.1 hPa | 0 mm | - | - | - |
| 1778157017 | -3.33° C | 91% | 1022.4 hPa | 0 mm | - | - | - |
| 1778156717 | -3.33° C | 91% | 1022.5 hPa | 0 mm | - | - | - |
| 1778156418 | -3.33° C | 91% | 1022.5 hPa | 0 mm | - | - | - |
| 1778156117 | -3.33° C | 91% | 1022.5 hPa | 0 mm | - | - | - |
| 1778155817 | -3.33° C | 91% | 1022.4 hPa | 0 mm | - | - | - |
| 1778155517 | -3.33° C | 90% | 1022.3 hPa | 0 mm | - | - | - |
| 1778155217 | -3.33° C | 90% | 1022.4 hPa | 0 mm | - | - | - |
| 1778154917 | -3.33° C | 89% | 1022.3 hPa | 0 mm | - | - | - |
| 1778154617 | -3.33° C | 88% | 1022.3 hPa | 0 mm | - | - | - |
| 1778154317 | -2.78° C | 87% | 1022.3 hPa | 0 mm | - | - | - |
| 1778154017 | -2.78° C | 87% | 1022.9 hPa | 0 mm | - | - | - |
| 1778153717 | -2.78° C | 86% | 1023 hPa | 0 mm | - | - | - |
| 1778153417 | -2.22° C | 84% | 1023 hPa | 0 mm | - | - | - |
| 1778153117 | -2.22° C | 82% | 1023 hPa | 0 mm | - | - | - |
| 1778152817 | -1.11° C | 81% | 1023.6 hPa | 0 mm | - | - | - |
| 1778152517 | -1.11° C | 80% | 1023.5 hPa | 0 mm | - | - | - |
| 1778152217 | -1.11° C | 80% | 1023.5 hPa | 0 mm | - | - | - |
| 1778151917 | -1.11° C | 78% | 1023.5 hPa | 0 mm | - | - | - |
| 1778151617 | -1.11° C | 79% | 1023.4 hPa | 0 mm | - | - | - |
* Rain latest hour (hover to see other rain measurements)
** Current wind speed in m/s (hover to see current wind gust speed)